createdAt,value
2019-03-30T00:01:15.188Z,9.53
2019-03-30T00:06:21.071Z,9.30
2019-03-30T00:11:26.903Z,10.20
2019-03-30T00:16:32.738Z,9.93
2019-03-30T00:21:38.580Z,11.00
2019-03-30T00:26:44.413Z,10.93
2019-03-30T00:31:50.307Z,9.93
2019-03-30T00:36:56.147Z,9.37
2019-03-30T00:42:01.979Z,9.93
2019-03-30T00:47:07.795Z,8.83
2019-03-30T00:52:13.661Z,9.27
2019-03-30T00:57:19.499Z,8.80
2019-03-30T01:02:25.431Z,9.60
2019-03-30T01:07:31.231Z,9.50
2019-03-30T01:12:37.078Z,9.40
2019-03-30T01:17:43.995Z,8.73
2019-03-30T01:22:49.826Z,9.87
2019-03-30T01:27:55.691Z,8.43
2019-03-30T01:33:02.611Z,10.00
2019-03-30T01:38:08.443Z,9.73
2019-03-30T01:43:14.283Z,11.53
2019-03-30T01:48:20.138Z,10.43
2019-03-30T01:53:26.016Z,10.70
2019-03-30T01:58:31.865Z,11.50
2019-03-30T02:03:37.727Z,10.23
2019-03-30T02:08:43.559Z,11.90
2019-03-30T02:13:49.427Z,10.20
2019-03-30T02:18:55.251Z,11.30
2019-03-30T02:24:01.087Z,10.17
2019-03-30T02:29:06.911Z,10.03
2019-03-30T02:34:12.747Z,10.20
2019-03-30T02:39:18.608Z,10.50
2019-03-30T02:44:24.461Z,10.77
2019-03-30T02:49:30.380Z,9.90
2019-03-30T02:54:36.219Z,10.27
2019-03-30T02:59:42.115Z,10.30
2019-03-30T03:04:47.999Z,9.43
2019-03-30T03:09:53.838Z,9.23
2019-03-30T03:14:59.698Z,8.87
2019-03-30T03:20:05.680Z,9.23
2019-03-30T03:25:11.532Z,8.70
2019-03-30T03:30:18.572Z,8.97
2019-03-30T03:35:24.419Z,9.27
2019-03-30T03:40:30.251Z,9.33
2019-03-30T03:45:36.107Z,8.73
2019-03-30T03:50:46.286Z,9.10
2019-03-30T03:55:52.256Z,8.63
2019-03-30T04:01:00.907Z,10.47
2019-03-30T04:06:07.877Z,10.90
2019-03-30T04:11:15.929Z,11.07
2019-03-30T04:16:21.792Z,11.07
2019-03-30T04:21:42.942Z,10.30
2019-03-30T04:26:35.120Z,9.70
2019-03-30T04:31:40.983Z,10.23
2019-03-30T04:36:46.831Z,9.53
2019-03-30T04:41:52.676Z,10.50
2019-03-30T04:46:58.521Z,9.57
2019-03-30T04:52:04.359Z,9.63
2019-03-30T04:57:10.236Z,10.10
2019-03-30T05:02:16.236Z,9.33
2019-03-30T05:07:22.894Z,10.27
2019-03-30T05:12:28.742Z,10.60
2019-03-30T05:17:46.852Z,10.03
2019-03-30T05:22:42.144Z,10.77
2019-03-30T05:27:47.991Z,10.10
2019-03-30T05:33:05.038Z,11.03
2019-03-30T05:38:01.663Z,10.63
2019-03-30T05:43:07.599Z,9.70
2019-03-30T05:48:13.458Z,9.70
2019-03-30T05:53:19.229Z,9.20
2019-03-30T05:58:25.095Z,8.53
2019-03-30T06:03:30.979Z,9.87
2019-03-30T06:08:36.851Z,9.17
2019-03-30T06:13:42.722Z,9.73
2019-03-30T06:18:48.577Z,10.50
2019-03-30T06:23:55.489Z,9.60
2019-03-30T06:29:01.334Z,9.30
2019-03-30T06:34:07.176Z,9.20
2019-03-30T06:39:13.016Z,10.30
2019-03-30T06:44:18.868Z,10.40
2019-03-30T06:49:24.724Z,9.27
2019-03-30T06:54:30.565Z,9.73
2019-03-30T06:59:36.504Z,10.10
2019-03-30T07:04:42.455Z,9.67
2019-03-30T07:09:51.343Z,10.73
2019-03-30T07:14:59.405Z,10.83
2019-03-30T07:20:05.470Z,11.30
2019-03-30T07:25:11.344Z,11.07
2019-03-30T07:30:17.191Z,11.20
2019-03-30T07:35:23.106Z,11.87
2019-03-30T07:40:29.352Z,11.10
2019-03-30T07:45:35.206Z,11.30
2019-03-30T07:50:42.143Z,10.33
2019-03-30T07:55:48.068Z,10.47
2019-03-30T08:00:54.046Z,10.27
2019-03-30T08:05:59.938Z,9.90
2019-03-30T08:11:06.055Z,10.77
2019-03-30T08:16:12.122Z,10.07
2019-03-30T08:21:18.091Z,11.07
2019-03-30T08:26:23.935Z,11.50
2019-03-30T08:31:29.787Z,11.70
2019-03-30T08:36:35.980Z,12.20
2019-03-30T08:41:45.013Z,11.60
2019-03-30T08:46:51.884Z,11.27
2019-03-30T08:51:57.730Z,11.17
2019-03-30T08:57:03.678Z,12.47
2019-03-30T09:02:10.040Z,12.17
2019-03-30T09:07:15.899Z,12.60
2019-03-30T09:12:22.219Z,11.83
2019-03-30T09:17:28.218Z,11.97
2019-03-30T09:22:34.304Z,11.93
2019-03-30T09:27:40.933Z,12.43
2019-03-30T09:32:47.033Z,11.50
2019-03-30T09:37:54.895Z,12.93
2019-03-30T09:43:01.525Z,13.10
2019-03-30T09:48:07.539Z,14.17
2019-03-30T09:53:14.735Z,13.53
2019-03-30T09:58:20.825Z,13.83
2019-03-30T10:03:27.123Z,13.20
2019-03-30T10:08:35.143Z,13.97
2019-03-30T10:13:43.101Z,15.20
2019-03-30T10:18:54.042Z,14.63
2019-03-30T10:24:00.252Z,13.97
2019-03-30T10:29:06.122Z,14.13
2019-03-30T10:34:16.738Z,14.95
2019-03-30T10:39:26.554Z,15.05
2019-03-30T10:44:33.173Z,14.85
2019-03-30T10:49:40.103Z,13.45
2019-03-30T10:54:52.971Z,14.87
2019-03-30T10:59:55.924Z,14.75
2019-03-30T11:05:01.860Z,13.78
2019-03-30T11:10:09.171Z,15.03
2019-03-30T11:15:16.170Z,14.45
2019-03-30T11:20:22.536Z,15.10
2019-03-30T11:25:28.711Z,14.15
2019-03-30T11:30:34.666Z,15.70
2019-03-30T11:35:41.109Z,14.95
2019-03-30T11:40:48.205Z,14.58
2019-03-30T11:45:54.095Z,15.00
2019-03-30T11:51:00.321Z,15.28
2019-03-30T11:56:07.010Z,14.80
2019-03-30T12:01:13.102Z,15.55
2019-03-30T12:06:19.731Z,15.98
2019-03-30T12:11:26.183Z,17.57
2019-03-30T12:16:32.118Z,15.60
2019-03-30T12:21:38.047Z,14.70
2019-03-30T12:26:43.908Z,15.48
2019-03-30T12:31:49.832Z,15.32
2019-03-30T12:36:56.556Z,15.72
2019-03-30T12:42:03.062Z,15.75
2019-03-30T12:47:10.500Z,15.35
2019-03-30T12:52:16.696Z,14.83
2019-03-30T12:57:23.325Z,15.25
2019-03-30T13:02:29.603Z,14.50
2019-03-30T13:07:35.685Z,14.93
2019-03-30T13:12:43.185Z,14.78
2019-03-30T13:17:49.951Z,14.98
2019-03-30T13:22:55.922Z,14.95
2019-03-30T13:28:02.432Z,15.85
2019-03-30T13:33:09.053Z,14.65
2019-03-30T13:38:15.113Z,16.02
2019-03-30T13:43:21.983Z,14.98
2019-03-30T13:48:29.477Z,13.88
2019-03-30T13:53:35.388Z,12.98
2019-03-30T13:58:41.632Z,15.13
2019-03-30T14:03:48.300Z,15.53
2019-03-30T14:08:54.855Z,16.25
2019-03-30T14:14:01.423Z,14.73
2019-03-30T14:19:07.776Z,15.50
2019-03-30T14:24:14.790Z,14.87
2019-03-30T14:29:21.668Z,15.68
2019-03-30T14:34:28.404Z,15.98
2019-03-30T14:39:34.763Z,15.25
2019-03-30T14:44:40.801Z,14.87
2019-03-30T14:49:46.900Z,14.90
2019-03-30T14:54:53.358Z,13.98
2019-03-30T15:00:00.445Z,16.17
2019-03-30T15:05:07.735Z,16.57
2019-03-30T15:10:17.310Z,14.40
2019-03-30T15:15:25.507Z,16.77
2019-03-30T15:20:31.492Z,16.55
2019-03-30T15:25:37.431Z,16.35
2019-03-30T15:30:43.676Z,14.98
2019-03-30T15:35:49.586Z,14.50
2019-03-30T15:40:56.914Z,15.70
2019-03-30T15:46:04.076Z,15.00
2019-03-30T15:51:10.015Z,16.20
2019-03-30T15:56:15.900Z,14.58
2019-03-30T16:01:22.107Z,15.15
2019-03-30T16:06:28.252Z,14.95
2019-03-30T16:11:34.388Z,14.68
2019-03-30T16:16:40.332Z,15.10
2019-03-30T16:21:49.474Z,16.37
2019-03-30T16:26:53.756Z,16.48
2019-03-30T16:32:02.369Z,16.07
2019-03-30T16:37:08.276Z,18.70
2019-03-30T16:42:14.212Z,17.90
2019-03-30T16:47:21.203Z,14.47
2019-03-30T16:52:31.952Z,14.63
2019-03-30T16:57:43.650Z,14.17
2019-03-30T17:02:49.627Z,14.80
2019-03-30T17:07:55.916Z,14.60
2019-03-30T17:13:10.239Z,13.67
2019-03-30T17:18:23.456Z,13.70
2019-03-30T17:23:31.581Z,12.93
2019-03-30T17:28:40.966Z,14.73
2019-03-30T17:33:48.424Z,15.70
2019-03-30T17:38:54.829Z,14.63
2019-03-30T17:44:01.196Z,13.10
2019-03-30T17:49:08.984Z,13.40
2019-03-30T17:54:15.333Z,14.53
2019-03-30T17:59:23.705Z,16.13
2019-03-30T18:04:32.208Z,14.07
2019-03-30T18:09:38.447Z,14.23
2019-03-30T18:14:44.609Z,16.00
2019-03-30T18:19:50.807Z,14.63
2019-03-30T18:24:57.011Z,15.40
2019-03-30T18:30:04.734Z,22.63
2019-03-30T18:35:12.375Z,23.40
2019-03-30T18:40:29.483Z,19.80
2019-03-30T18:45:37.009Z,18.73
2019-03-30T18:50:44.455Z,22.00
2019-03-30T18:55:52.313Z,22.40
2019-03-30T19:00:58.495Z,18.93
2019-03-30T19:06:05.094Z,16.00
2019-03-30T19:11:12.161Z,16.13
2019-03-30T19:16:18.541Z,15.93
2019-03-30T19:21:26.715Z,15.53
2019-03-30T19:26:33.568Z,15.03
2019-03-30T19:31:39.804Z,18.03
2019-03-30T19:36:46.177Z,18.67
2019-03-30T19:41:52.688Z,18.83
2019-03-30T19:46:58.874Z,16.27
2019-03-30T19:52:05.842Z,17.13
2019-03-30T19:57:12.509Z,15.17
2019-03-30T20:02:18.601Z,15.03
2019-03-30T20:07:25.013Z,14.77
2019-03-30T20:12:31.381Z,15.03
2019-03-30T20:17:37.757Z,13.80
2019-03-30T20:22:44.001Z,12.67
2019-03-30T20:27:50.223Z,12.60
2019-03-30T20:32:56.537Z,12.27
2019-03-30T20:38:02.849Z,12.23
2019-03-30T20:43:09.171Z,12.10
2019-03-30T20:48:15.603Z,11.57
2019-03-30T20:53:21.829Z,13.40
2019-03-30T20:58:29.495Z,13.27
2019-03-30T21:03:35.798Z,12.43
2019-03-30T21:08:42.115Z,11.27
2019-03-30T21:13:49.424Z,13.90
2019-03-30T21:18:56.112Z,14.23
2019-03-30T21:24:02.361Z,14.10
2019-03-30T21:29:09.712Z,12.90
2019-03-30T21:34:16.176Z,12.33
2019-03-30T21:39:22.621Z,15.90
2019-03-30T21:44:29.755Z,14.80
2019-03-30T21:49:36.440Z,15.93
2019-03-30T21:54:42.611Z,15.17
2019-03-30T21:59:48.797Z,17.03
2019-03-30T22:04:55.052Z,16.10
2019-03-30T22:10:01.200Z,14.77
2019-03-30T22:15:07.997Z,12.20
2019-03-30T22:20:14.397Z,12.87
2019-03-30T22:25:20.905Z,12.20
2019-03-30T22:30:27.641Z,13.83
2019-03-30T22:35:34.075Z,11.27
2019-03-30T22:40:41.573Z,12.93
2019-03-30T22:45:47.947Z,13.03
2019-03-30T22:50:55.492Z,13.20
2019-03-30T22:56:01.887Z,13.97
2019-03-30T23:01:16.395Z,14.17
2019-03-30T23:06:24.351Z,13.70
2019-03-30T23:11:30.589Z,14.70
2019-03-30T23:16:37.844Z,15.70
2019-03-30T23:21:44.034Z,14.50
2019-03-30T23:26:50.160Z,14.00
2019-03-30T23:31:56.581Z,13.60
2019-03-30T23:37:02.999Z,12.97
2019-03-30T23:42:09.342Z,13.40
2019-03-30T23:47:15.508Z,12.77
2019-03-30T23:52:21.816Z,13.57
2019-03-30T23:57:27.922Z,14.07
